Time;durP1;ratioP1;P1;durP2;ratioP2;P2;SDS_P1;SDS_P2;PMS_P1;PMS_P2;Temp;Humidity;BMP_temperature;BMP_pressure;BME280_temperature;BME280_humidity;BME280_pressure;Samples;Min_cycle;Max_cycle;Signal;HPM_P1;HPM_P2
2023/02/17 00:01:20;;;;;;;0.77;0.10;;;;;;;30.40;44.60;99720.81;7384122;19;20461;-80
2023/02/17 00:03:51;;;;;;;0.20;0.20;;;;;;;30.78;44.13;99728.31;7387184;19;20039;-81
2023/02/17 00:06:19;;;;;;;1.27;0.20;;;;;;;30.62;44.15;99718.63;7390529;19;20014;-81
2023/02/17 00:08:46;;;;;;;0.47;0.25;;;;;;;30.42;44.57;99718.06;7392001;19;20070;-81
2023/02/17 00:11:13;;;;;;;0.17;0.15;;;;;;;30.24;44.43;99727.53;7392839;19;20039;-81
2023/02/17 00:13:39;;;;;;;0.47;0.20;;;;;;;30.36;44.33;99714.03;7392441;19;20014;-81
2023/02/17 00:16:16;;;;;;;1.17;0.30;;;;;;;29.60;45.61;99710.28;7390327;19;20006;-82
2023/02/17 00:18:42;;;;;;;0.20;0.20;;;;;;;30.22;44.60;99713.06;7389774;19;20018;-80
2023/02/17 00:21:16;;;;;;;0.52;0.10;;;;;;;30.33;44.45;99726.75;7392407;19;20032;-81
2023/02/17 00:23:44;;;;;;;0.40;0.13;;;;;;;30.43;44.69;99716.69;7394844;19;20014;-81
2023/02/17 00:26:11;;;;;;;4.47;0.25;;;;;;;30.51;44.06;99714.34;7393341;19;20015;-81
2023/02/17 00:28:38;;;;;;;0.35;0.20;;;;;;;28.19;46.40;99720.09;7391448;19;20029;-81
2023/02/17 00:31:06;;;;;;;0.63;0.20;;;;;;;29.33;46.04;99724.13;7389343;19;20014;-81
2023/02/17 00:33:35;;;;;;;0.17;0.13;;;;;;;28.37;47.69;99730.03;7390486;19;20022;-81
2023/02/17 00:36:04;;;;;;;0.17;0.17;;;;;;;30.72;44.44;99725.03;7393192;19;20010;-80
2023/02/17 00:38:31;;;;;;;1.85;0.25;;;;;;;31.86;42.83;99722.19;7389683;19;20018;-81
2023/02/17 00:40:57;;;;;;;0.40;0.40;;;;;;;31.97;42.74;99721.44;7389794;19;20023;-81
2023/02/17 00:43:23;;;;;;;0.10;0.05;;;;;;;32.49;41.28;99718.78;7386379;19;20014;-80
2023/02/17 00:45:49;;;;;;;0.30;0.30;;;;;;;31.80;41.79;99721.81;7390728;19;20074;-81
2023/02/17 00:48:15;;;;;;;0.75;0.47;;;;;;;31.91;41.71;99724.69;7390612;19;20070;-80
2023/02/17 00:50:41;;;;;;;0.68;0.45;;;;;;;31.71;41.58;99716.94;7392183;19;20022;-80
2023/02/17 00:53:08;;;;;;;0.50;0.10;;;;;;;31.48;41.48;99720.59;7395500;19;20022;-81
2023/02/17 00:55:36;;;;;;;0.20;0.10;;;;;;;30.85;42.71;99720.81;7390684;19;20092;-80
2023/02/17 00:58:02;;;;;;;0.77;0.28;;;;;;;31.39;42.50;99727.19;7391741;19;20019;-79
2023/02/17 01:00:28;;;;;;;0.22;0.10;;;;;;;29.82;44.02;99737.66;7390956;19;20033;-81
2023/02/17 01:02:55;;;;;;;1.75;0.30;;;;;;;30.42;43.44;99725.94;7389144;19;20019;-80
2023/02/17 01:05:22;;;;;;;0.77;0.52;;;;;;;31.17;42.98;99737.28;7391104;19;20019;-80
2023/02/17 01:07:48;;;;;;;0.10;0.00;;;;;;;31.36;42.13;99732.06;7391541;19;20512;-80
2023/02/17 01:10:14;;;;;;;1.08;0.20;;;;;;;31.40;42.22;99735.22;7389890;19;20023;-80
2023/02/17 01:12:41;;;;;;;0.30;0.22;;;;;;;31.42;41.62;99723.81;7388150;19;20467;-80
2023/02/17 01:15:07;;;;;;;1.10;0.40;;;;;;;28.68;44.89;99735.16;7388925;19;20026;-80
2023/02/17 01:17:33;;;;;;;0.25;0.10;;;;;;;24.85;52.33;99741.00;7390701;19;20022;-80
2023/02/17 01:19:59;;;;;;;0.65;0.50;;;;;;;27.41;49.77;99731.16;7389608;19;20019;-80
2023/02/17 01:22:25;;;;;;;0.25;0.10;;;;;;;27.21;50.50;99743.84;7389003;19;20048;-80
2023/02/17 01:24:53;;;;;;;1.75;0.40;;;;;;;27.02;50.33;99736.69;7389014;19;20037;-80
2023/02/17 01:27:20;;;;;;;0.10;0.10;;;;;;;28.22;49.01;99735.31;7389486;19;20021;-80
2023/02/17 01:29:47;;;;;;;5.25;0.75;;;;;;;28.68;47.77;99740.88;7388485;19;20006;-80
2023/02/17 01:32:13;;;;;;;0.30;0.20;;;;;;;28.58;47.86;99729.44;7389366;19;20532;-80
2023/02/17 01:34:39;;;;;;;0.30;0.10;;;;;;;27.72;48.84;99737.91;7388476;19;20018;-80
2023/02/17 01:37:06;;;;;;;1.55;0.47;;;;;;;27.71;48.79;99734.28;7389640;19;20021;-80
2023/02/17 01:39:35;;;;;;;0.20;0.10;;;;;;;26.71;49.99;99740.50;7389818;19;20014;-80
2023/02/17 01:42:01;;;;;;;0.20;0.10;;;;;;;26.13;51.88;99736.44;7386720;19;20477;-80
2023/02/17 01:44:51;;;;;;;0.10;0.10;;;;;;;28.09;49.17;99733.63;7389789;19;20022;-80
2023/02/17 01:47:17;;;;;;;0.47;0.15;;;;;;;27.94;48.28;99728.16;7392748;19;20023;-80
2023/02/17 01:49:43;;;;;;;0.20;0.20;;;;;;;23.42;57.40;99729.91;7387241;19;20485;-80
2023/02/17 01:52:12;;;;;;;3.30;0.20;;;;;;;25.37;54.77;99751.34;7389354;19;20420;-80
2023/02/17 01:55:12;;;;;;;0.30;0.22;;;;;;;24.86;55.86;99731.16;7390437;19;20014;-80
2023/02/17 01:57:40;;;;;;;0.45;0.30;;;;;;;24.40;59.89;99732.66;7384633;19;20025;-81
2023/02/17 02:00:09;;;;;;;0.68;0.38;;;;;;;24.55;60.78;99721.97;7386615;19;20520;-80
2023/02/17 02:02:45;;;;;;;5.15;0.52;;;;;;;21.37;73.10;99724.56;7385722;19;20481;-80
2023/02/17 02:05:13;;;;;;;0.10;0.10;;;;;;;23.64;67.55;99714.94;7386752;19;20029;-80
2023/02/17 02:07:43;;;;;;;0.17;0.05;;;;;;;24.03;71.92;99720.78;7388926;19;20025;-82
2023/02/17 02:10:11;;;;;;;1.40;0.32;;;;;;;27.04;56.93;99713.97;7389759;19;20026;-83
2023/02/17 02:12:39;;;;;;;0.10;0.10;;;;;;;27.10;56.25;99710.06;7387277;19;20034;-83
2023/02/17 02:15:13;;;;;;;0.70;0.10;;;;;;;26.98;54.86;99704.91;7388726;19;20371;-83
2023/02/17 02:18:01;;;;;;;0.28;0.03;;;;;;;26.88;53.70;99689.06;7388845;19;20014;-81
2023/02/17 02:21:01;;;;;;;0.30;0.10;;;;;;;26.74;54.13;99680.13;7387809;19;20014;-82
2023/02/17 02:23:39;;;;;;;0.10;0.10;;;;;;;27.33;52.28;99690.47;7390144;19;20021;-82
2023/02/17 02:26:33;;;;;;;0.10;0.10;;;;;;;26.95;52.06;99668.19;7387778;19;20011;-83
2023/02/17 02:29:44;;;;;;;0.35;0.30;;;;;;;26.60;52.09;99687.50;7387423;19;20517;-80
2023/02/17 02:32:28;;;;;;;0.10;0.00;;;;;;;23.28;61.21;99666.81;7387667;19;20051;-81
2023/02/17 02:35:12;;;;;;;0.10;0.10;;;;;;;24.97;58.44;99668.00;7386422;19;20017;-81
2023/02/17 02:37:54;;;;;;;0.30;0.00;;;;;;;24.94;58.35;99674.88;7384939;19;20389;-80
2023/02/17 02:40:26;;;;;;;0.10;0.00;;;;;;;24.67;58.50;99699.47;7386473;19;20035;-81
2023/02/17 02:42:53;;;;;;;0.30;0.10;;;;;;;24.91;57.98;99695.97;7387084;19;20029;-80
2023/02/17 02:45:20;;;;;;;0.10;0.05;;;;;;;24.33;59.95;99685.03;7387528;19;20019;-80
2023/02/17 02:47:55;;;;;;;5.40;0.10;;;;;;;23.74;61.45;99676.81;7390895;19;20499;-80
2023/02/17 02:50:37;;;;;;;0.40;0.20;;;;;;;23.05;66.83;99688.75;7386727;19;20020;-80
2023/02/17 02:53:08;;;;;;;0.30;0.30;;;;;;;23.58;66.25;99683.88;7390844;19;20021;-80
2023/02/17 02:56:02;;;;;;;0.05;0.00;;;;;;;24.34;62.66;99700.78;7387381;19;20110;-81
2023/02/17 02:58:39;;;;;;;0.10;0.10;;;;;;;24.75;60.26;99708.78;7386105;19;20014;-80
2023/02/17 03:01:34;;;;;;;0.10;0.10;;;;;;;24.82;60.60;99699.44;7386213;19;20018;-82
2023/02/17 03:04:59;;;;;;;10.77;0.95;;;;;;;25.24;58.48;99711.69;7385114;19;20070;-82
2023/02/17 03:07:41;;;;;;;0.10;0.10;;;;;;;25.07;59.36;99705.94;7384728;19;20018;-80
2023/02/17 03:10:08;;;;;;;0.22;0.17;;;;;;;25.53;58.10;99704.25;7384660;19;20086;-81
2023/02/17 03:12:37;;;;;;;3.50;0.45;;;;;;;25.02;58.49;99704.06;7384553;19;20043;-82
2023/02/17 03:15:23;;;;;;;0.45;0.45;;;;;;;24.64;59.66;99672.19;7385669;19;20018;-80
2023/02/17 03:17:49;;;;;;;0.50;0.40;;;;;;;24.76;59.57;99667.56;7385296;19;20644;-80
2023/02/17 03:20:16;;;;;;;3.30;0.20;;;;;;;24.26;60.95;99677.28;7384779;19;20551;-80
2023/02/17 03:22:45;;;;;;;0.10;0.10;;;;;;;24.26;60.93;99671.59;7386919;19;20014;-80
2023/02/17 03:25:14;;;;;;;10.48;0.52;;;;;;;24.59;60.22;99653.22;7386192;19;20022;-80
2023/02/17 03:27:42;;;;;;;0.88;0.35;;;;;;;24.69;60.09;99674.78;7384805;19;20022;-80
2023/02/17 03:30:08;;;;;;;0.10;0.00;;;;;;;23.37;63.24;99657.72;7385540;19;20086;-80
2023/02/17 03:32:35;;;;;;;7.75;0.73;;;;;;;23.05;65.91;99657.50;7385032;19;20011;-80
2023/02/17 03:35:02;;;;;;;0.10;0.10;;;;;;;23.60;64.59;99649.94;7386031;19;20089;-80
2023/02/17 03:37:28;;;;;;;0.03;0.03;;;;;;;24.31;62.01;99651.47;7387392;19;20014;-80
2023/02/17 03:39:54;;;;;;;0.30;0.20;;;;;;;24.39;61.96;99645.72;7394157;19;20022;-80
2023/02/17 03:42:20;;;;;;;0.45;0.30;;;;;;;25.10;59.81;99650.59;7393319;19;20010;-80
2023/02/17 03:44:46;;;;;;;0.10;0.10;;;;;;;25.21;59.04;99635.88;7393142;19;20022;-80
2023/02/17 03:47:12;;;;;;;12.95;0.65;;;;;;;25.06;58.82;99632.44;7397291;19;20026;-80
2023/02/17 03:49:38;;;;;;;0.80;0.50;;;;;;;24.68;59.88;99618.41;7392854;19;20010;-79
2023/02/17 03:52:04;;;;;;;0.73;0.30;;;;;;;23.78;62.04;99628.84;7393731;19;20006;-80
2023/02/17 03:54:31;;;;;;;0.10;0.10;;;;;;;24.55;60.35;99635.78;7392246;19;20022;-80
2023/02/17 03:56:58;;;;;;;2.40;0.22;;;;;;;24.44;60.56;99621.97;7391690;19;20052;-80
2023/02/17 03:59:24;;;;;;;0.90;0.63;;;;;;;24.66;60.07;99632.47;7393676;19;20029;-80
2023/02/17 04:01:50;;;;;;;0.05;0.00;;;;;;;25.03;59.00;99614.41;7390792;19;20010;-80
2023/02/17 04:04:16;;;;;;;0.00;0.00;;;;;;;24.91;58.81;99621.88;7392719;19;20353;-80
2023/02/17 04:06:42;;;;;;;3.40;1.00;;;;;;;23.87;62.50;99616.88;7390802;19;20010;-80
2023/02/17 04:09:09;;;;;;;1.42;0.43;;;;;;;24.33;60.52;99636.63;7392909;19;20011;-79
2023/02/17 04:11:35;;;;;;;2.67;1.20;;;;;;;22.30;64.65;99633.31;7391702;19;20043;-80
2023/02/17 04:14:02;;;;;;;0.10;0.00;;;;;;;24.58;59.45;99623.22;7393203;19;20015;-79
2023/02/17 04:16:28;;;;;;;0.10;0.10;;;;;;;24.27;60.05;99625.47;7390893;19;20033;-80
2023/02/17 04:18:54;;;;;;;0.20;0.20;;;;;;;23.87;61.92;99636.78;7393074;19;20093;-80
2023/02/17 04:21:20;;;;;;;0.08;0.00;;;;;;;23.97;61.19;99623.47;7393047;19;20026;-79
2023/02/17 04:23:46;;;;;;;0.30;0.28;;;;;;;23.27;62.00;99636.88;7390516;19;20014;-80
2023/02/17 04:26:12;;;;;;;0.10;0.10;;;;;;;24.71;60.98;99623.69;7395047;19;20057;-79
2023/02/17 04:28:40;;;;;;;0.10;0.10;;;;;;;26.13;56.94;99616.53;7389998;19;20013;-80
2023/02/17 04:31:07;;;;;;;0.15;0.15;;;;;;;25.76;56.40;99615.63;7391029;19;20022;-80
2023/02/17 04:33:33;;;;;;;0.10;0.05;;;;;;;25.05;58.18;99625.19;7392458;19;20022;-80
2023/02/17 04:36:00;;;;;;;0.65;0.20;;;;;;;25.38;57.69;99618.09;7392117;19;20375;-80
2023/02/17 04:38:30;;;;;;;0.63;0.20;;;;;;;25.79;56.48;99623.00;7389011;19;20513;-80
2023/02/17 04:40:57;;;;;;;6.63;0.75;;;;;;;25.15;57.35;99623.97;7391728;19;20011;-81
2023/02/17 04:43:25;;;;;;;0.40;0.05;;;;;;;25.44;56.92;99627.16;7387726;19;20097;-79
2023/02/17 04:45:51;;;;;;;0.30;0.25;;;;;;;25.38;56.01;99624.50;7392670;19;20022;-79
2023/02/17 04:48:18;;;;;;;0.20;0.00;;;;;;;25.65;56.71;99635.31;7390808;19;20018;-80
2023/02/17 04:50:45;;;;;;;0.20;0.10;;;;;;;26.02;55.85;99631.28;7394431;19;20018;-79
2023/02/17 04:53:12;;;;;;;0.05;0.05;;;;;;;24.37;58.21;99637.00;7393154;19;20074;-79
2023/02/17 04:55:40;;;;;;;0.55;0.35;;;;;;;25.16;59.59;99619.78;7391968;19;20015;-79
2023/02/17 04:58:07;;;;;;;0.20;0.20;;;;;;;25.81;57.15;99617.47;7391842;19;20075;-79
2023/02/17 05:00:33;;;;;;;4.22;0.22;;;;;;;23.82;61.89;99603.63;7394345;19;20022;-79
2023/02/17 05:03:00;;;;;;;0.00;0.00;;;;;;;25.23;58.07;99615.38;7388440;19;20641;-79
2023/02/17 05:05:26;;;;;;;0.08;0.00;;;;;;;25.28;57.29;99606.56;7390207;19;20015;-80
2023/02/17 05:07:52;;;;;;;0.10;0.10;;;;;;;25.09;59.14;99612.06;7390249;19;20043;-79
2023/02/17 05:10:18;;;;;;;0.52;0.38;;;;;;;24.87;60.83;99610.13;7391506;19;20044;-79
2023/02/17 05:12:45;;;;;;;0.60;0.45;;;;;;;25.96;56.58;99613.69;7388263;19;20386;-80
2023/02/17 05:15:12;;;;;;;0.20;0.13;;;;;;;26.43;55.02;99593.28;7390304;19;20018;-80
2023/02/17 05:17:38;;;;;;;0.20;0.20;;;;;;;25.60;55.96;99617.09;7389362;19;20102;-79
2023/02/17 05:20:05;;;;;;;0.35;0.35;;;;;;;25.75;56.95;99604.81;7389400;19;20372;-79
2023/02/17 05:22:31;;;;;;;0.00;0.00;;;;;;;26.66;54.29;99619.41;7392153;19;20015;-80
2023/02/17 05:24:58;;;;;;;0.20;0.10;;;;;;;26.76;53.72;99608.84;7391142;19;20019;-83
2023/02/17 05:27:24;;;;;;;0.45;0.20;;;;;;;26.03;54.91;99602.16;7389978;19;20017;-80
2023/02/17 05:29:50;;;;;;;0.10;0.00;;;;;;;22.04;72.76;99616.56;7389255;19;20018;-80
2023/02/17 05:32:17;;;;;;;0.00;0.00;;;;;;;23.53;78.93;99621.50;7389668;19;20369;-81
2023/02/17 05:34:43;;;;;;;0.00;0.00;;;;;;;26.49;60.43;99590.91;7390730;19;20052;-80
2023/02/17 05:37:10;;;;;;;0.10;0.00;;;;;;;26.95;58.11;99588.16;7387937;19;20018;-80
2023/02/17 05:39:36;;;;;;;0.10;0.10;;;;;;;24.66;64.13;99601.16;7390834;19;20014;-80
2023/02/17 05:42:02;;;;;;;0.10;0.00;;;;;;;25.11;66.58;99608.63;7389919;19;20029;-80
2023/02/17 05:44:28;;;;;;;0.00;0.00;;;;;;;18.28;97.07;99602.19;7388241;19;20018;-80
2023/02/17 05:46:54;;;;;;;0.10;0.10;;;;;;;16.34;100.00;99629.47;7392441;19;20011;-80
2023/02/17 05:49:20;;;;;;;0.20;0.20;;;;;;;14.95;100.00;99641.16;7389666;19;20019;-81
2023/02/17 05:51:46;;;;;;;0.10;0.10;;;;;;;15.68;100.00;99648.19;7390461;19;20025;-81
2023/02/17 05:54:13;;;;;;;0.00;0.00;;;;;;;14.85;100.00;99647.53;7387419;19;20018;-80
2023/02/17 05:56:39;;;;;;;0.10;0.03;;;;;;;14.54;100.00;99647.75;7389598;19;20026;-80
2023/02/17 05:59:05;;;;;;;0.30;0.10;;;;;;;15.49;100.00;99636.00;7389811;19;20053;-80
2023/02/17 06:01:31;;;;;;;1.27;0.28;;;;;;;15.30;100.00;99656.69;7384511;19;20014;-80
2023/02/17 06:03:57;;;;;;;0.10;0.00;;;;;;;20.86;100.00;99625.91;7388771;19;20115;-80
2023/02/17 06:06:23;;;;;;;0.10;0.10;;;;;;;26.71;79.20;99623.34;7388166;19;20022;-80
2023/02/17 06:08:50;;;;;;;0.10;0.10;;;;;;;28.72;65.19;99638.00;7389851;19;20015;-80
2023/02/17 06:11:16;;;;;;;0.10;0.10;;;;;;;25.04;72.95;99655.78;7390708;19;20484;-81
2023/02/17 06:13:42;;;;;;;0.10;0.00;;;;;;;22.63;77.83;99669.16;7387951;19;20011;-80
2023/02/17 06:16:08;;;;;;;0.10;0.00;;;;;;;17.08;100.00;99679.84;7390743;19;20038;-79
2023/02/17 06:18:34;;;;;;;0.17;0.00;;;;;;;21.54;100.00;99679.53;7386936;19;20394;-81
2023/02/17 06:21:01;;;;;;;0.32;0.00;;;;;;;23.59;93.66;99674.00;7389298;19;20525;-80
2023/02/17 06:23:27;;;;;;;0.00;0.00;;;;;;;27.89;69.73;99686.28;7391665;19;20016;-81
2023/02/17 06:25:53;;;;;;;0.10;0.10;;;;;;;25.65;75.18;99689.50;7389472;19;20014;-80
2023/02/17 06:28:20;;;;;;;0.35;0.00;;;;;;;26.59;72.79;99685.25;7387109;19;20022;-80
2023/02/17 06:30:46;;;;;;;0.10;0.00;;;;;;;25.61;73.00;99677.78;7388190;19;20018;-81
2023/02/17 06:33:12;;;;;;;0.55;0.55;;;;;;;21.35;98.72;99693.19;7387889;19;20022;-80
2023/02/17 06:35:38;;;;;;;0.00;0.00;;;;;;;22.96;84.84;99686.47;7389353;19;20035;-80
2023/02/17 06:38:04;;;;;;;0.10;0.00;;;;;;;21.32;99.78;99694.28;7386502;19;20021;-80
2023/02/17 06:40:31;;;;;;;0.10;0.00;;;;;;;21.32;90.89;99694.28;7387503;19;20019;-80
2023/02/17 06:42:57;;;;;;;0.00;0.00;;;;;;;16.95;100.00;99702.19;7385992;19;20021;-80
2023/02/17 06:45:23;;;;;;;0.30;0.30;;;;;;;15.52;100.00;99695.97;7388516;19;20403;-80
2023/02/17 06:47:49;;;;;;;1.67;0.20;;;;;;;15.01;100.00;99703.63;7387847;19;20022;-80
2023/02/17 06:50:15;;;;;;;1.80;0.50;;;;;;;15.14;100.00;99708.72;7386054;19;20804;-80
2023/02/17 06:52:41;;;;;;;6.35;0.38;;;;;;;13.42;100.00;99713.75;7388745;19;20018;-80
2023/02/17 06:55:08;;;;;;;3.30;0.80;;;;;;;14.58;100.00;99710.69;7386393;19;20019;-80
2023/02/17 06:57:34;;;;;;;7.35;0.82;;;;;;;14.65;100.00;99715.81;7386950;19;20020;-80
2023/02/17 07:00:00;;;;;;;6.18;0.60;;;;;;;14.87;100.00;99715.84;7385454;19;20050;-79
2023/02/17 07:02:26;;;;;;;1.35;0.32;;;;;;;21.72;100.00;99684.94;7387048;19;20022;-80
2023/02/17 07:04:52;;;;;;;6.70;1.05;;;;;;;25.12;81.32;99682.13;7388347;19;20103;-80
2023/02/17 07:07:19;;;;;;;0.45;0.30;;;;;;;26.95;69.40;99680.38;7387258;19;20022;-80
2023/02/17 07:09:45;;;;;;;4.78;0.38;;;;;;;24.61;87.88;99696.09;7387237;19;20806;-80
2023/02/17 07:12:11;;;;;;;0.82;0.73;;;;;;;22.18;100.00;99671.81;7383620;19;20035;-80
2023/02/17 07:14:40;;;;;;;0.28;0.05;;;;;;;16.24;100.00;99698.53;7383736;19;20018;-80
2023/02/17 07:17:06;;;;;;;1.80;0.60;;;;;;;15.68;100.00;99695.16;7386150;19;20666;-80
2023/02/17 07:19:32;;;;;;;0.00;0.00;;;;;;;15.53;100.00;99709.47;7386245;19;20020;-80
2023/02/17 07:21:58;;;;;;;0.52;0.17;;;;;;;15.49;100.00;99700.56;7387750;19;20022;-80
2023/02/17 07:24:27;;;;;;;4.75;1.27;;;;;;;15.55;100.00;99686.53;7384405;19;20026;-80
2023/02/17 07:26:54;;;;;;;0.03;0.00;;;;;;;15.64;100.00;99694.63;7384194;19;20033;-80
2023/02/17 07:29:22;;;;;;;0.15;0.15;;;;;;;15.64;100.00;99698.22;7385613;19;20049;-79
2023/02/17 07:31:48;;;;;;;0.10;0.00;;;;;;;15.48;100.00;99698.25;7383349;19;20067;-80
2023/02/17 07:34:14;;;;;;;0.80;0.52;;;;;;;15.37;100.00;99689.84;7384612;19;20019;-80
2023/02/17 07:36:40;;;;;;;0.38;0.38;;;;;;;15.40;100.00;99705.66;7386211;19;20010;-80
2023/02/17 07:39:06;;;;;;;0.57;0.22;;;;;;;14.86;100.00;99707.94;7386146;19;20015;-80
2023/02/17 07:41:33;;;;;;;0.10;0.08;;;;;;;14.76;100.00;99704.63;7385837;19;20019;-79
2023/02/17 07:44:07;;;;;;;0.30;0.20;;;;;;;14.82;100.00;99724.25;7386760;19;20018;-80
2023/02/17 07:46:33;;;;;;;0.10;0.00;;;;;;;19.16;100.00;99707.25;7386295;19;20038;-80
2023/02/17 07:48:59;;;;;;;3.13;0.30;;;;;;;16.71;100.00;99714.13;7382592;19;20350;-79
2023/02/17 07:51:25;;;;;;;0.25;0.17;;;;;;;15.51;100.00;99730.91;7386036;19;20026;-80
2023/02/17 07:53:52;;;;;;;0.70;0.25;;;;;;;21.96;100.00;99723.50;7384978;19;20034;-80
2023/02/17 07:56:20;;;;;;;0.10;0.00;;;;;;;22.75;100.00;99722.78;7383981;19;20023;-80
2023/02/17 07:58:47;;;;;;;0.00;0.00;;;;;;;26.51;78.54;99713.16;7386222;19;20086;-80
2023/02/17 08:01:18;;;;;;;0.00;0.00;;;;;;;22.53;80.22;99729.84;7384949;19;20085;-79
2023/02/17 08:03:45;;;;;;;0.63;0.10;;;;;;;24.28;92.30;99720.19;7384252;19;20032;-80
2023/02/17 08:06:14;;;;;;;0.20;0.20;;;;;;;17.25;100.00;99742.38;7387322;19;20026;-81
2023/02/17 08:14:10;;;;;;;5.05;1.02;;;;;;;27.68;67.54;99723.28;7383091;19;20025;-80
2023/02/17 08:16:36;;;;;;;0.10;0.00;;;;;;;28.06;63.31;99734.84;7385184;19;20501;-81
2023/02/17 08:19:02;;;;;;;0.10;0.10;;;;;;;28.12;61.60;99723.84;7385436;19;20481;-80
2023/02/17 08:21:28;;;;;;;0.00;0.00;;;;;;;27.25;61.16;99727.00;7385788;19;20025;-80
2023/02/17 08:23:55;;;;;;;0.00;0.00;;;;;;;28.28;60.16;99732.91;7386814;19;20018;-80
2023/02/17 08:26:22;;;;;;;0.08;0.00;;;;;;;26.09;60.99;99745.44;7396289;19;20033;-80
2023/02/17 08:28:48;;;;;;;0.15;0.00;;;;;;;18.02;100.00;99764.19;7389777;19;20459;-81
2023/02/17 08:31:22;;;;;;;1.13;0.32;;;;;;;17.62;100.00;99756.66;7392750;19;20022;-80
2023/02/17 08:33:48;;;;;;;0.55;0.30;;;;;;;17.17;100.00;99759.06;7390267;19;20014;-80
2023/02/17 08:36:16;;;;;;;0.10;0.00;;;;;;;22.48;100.00;99747.84;7397256;19;20015;-80
2023/02/17 08:38:47;;;;;;;2.45;0.60;;;;;;;26.30;80.35;99742.16;7392821;19;20774;-81
2023/02/17 08:41:16;;;;;;;0.00;0.00;;;;;;;27.81;68.00;99762.91;7390732;19;20015;-80
2023/02/17 08:43:42;;;;;;;0.73;0.35;;;;;;;27.71;66.21;99762.91;7389502;19;20477;-81
2023/02/17 08:46:11;;;;;;;0.00;0.00;;;;;;;27.22;63.10;99763.28;7390743;19;20010;-81
2023/02/17 08:48:37;;;;;;;7.38;0.32;;;;;;;26.77;64.98;99767.50;7389431;19;20039;-80
2023/02/17 08:51:04;;;;;;;0.10;0.10;;;;;;;28.83;59.51;99774.97;7391800;19;20014;-80
2023/02/17 08:53:31;;;;;;;0.25;0.10;;;;;;;28.88;58.20;99765.31;7394311;19;20112;-80
2023/02/17 08:55:57;;;;;;;0.20;0.20;;;;;;;29.04;56.29;99764.34;7393517;19;20018;-80
2023/02/17 08:58:24;;;;;;;1.48;0.30;;;;;;;28.48;57.01;99751.56;7389488;19;20031;-82
2023/02/17 09:00:50;;;;;;;0.75;0.38;;;;;;;28.93;56.64;99767.13;7390004;19;20018;-78
2023/02/17 09:03:16;;;;;;;1.80;0.40;;;;;;;29.97;54.07;99776.75;7391536;19;20018;-80
2023/02/17 09:05:42;;;;;;;0.10;0.10;;;;;;;29.36;53.84;99768.84;7392560;19;20071;-79
2023/02/17 09:08:09;;;;;;;0.20;0.10;;;;;;;30.51;51.81;99774.72;7391205;19;20179;-80
2023/02/17 09:10:36;;;;;;;2.75;0.38;;;;;;;31.17;49.53;99758.19;7389788;19;20014;-80
2023/02/17 09:13:03;;;;;;;0.25;0.25;;;;;;;31.61;47.21;99771.78;7388279;19;20020;-80
2023/02/17 09:15:30;;;;;;;0.10;0.10;;;;;;;22.42;66.56;99784.88;7389129;19;20022;-80
2023/02/17 09:17:56;;;;;;;0.30;0.10;;;;;;;19.84;100.00;99791.09;7389912;19;20043;-80
2023/02/17 09:20:22;;;;;;;0.00;0.00;;;;;;;24.41;85.02;99774.78;7388703;19;20035;-80
2023/02/17 09:22:48;;;;;;;0.05;0.03;;;;;;;22.38;81.62;99778.81;7389548;19;20014;-80
2023/02/17 09:25:15;;;;;;;0.90;0.40;;;;;;;27.82;67.25;99778.75;7388575;19;20464;-80
2023/02/17 09:27:41;;;;;;;0.55;0.30;;;;;;;28.11;67.46;99781.72;7390461;19;20014;-80
2023/02/17 09:30:07;;;;;;;0.10;0.10;;;;;;;28.34;62.95;99764.84;7389562;19;20010;-80
2023/02/17 09:32:33;;;;;;;0.10;0.10;;;;;;;30.39;55.12;99761.63;7389915;19;20078;-81
2023/02/17 09:35:01;;;;;;;0.10;0.10;;;;;;;30.14;54.22;99769.97;7390108;19;20299;-79
2023/02/17 09:37:27;;;;;;;1.00;0.38;;;;;;;30.01;53.43;99779.13;7388474;19;20019;-80
2023/02/17 09:39:53;;;;;;;0.10;0.10;;;;;;;29.81;53.76;99782.13;7388639;19;20018;-80
2023/02/17 09:42:26;;;;;;;2.60;0.30;;;;;;;28.21;56.07;99768.91;7386752;19;20590;-79
2023/02/17 09:45:03;;;;;;;0.75;0.30;;;;;;;30.06;52.77;99757.94;7390973;19;20485;-79
2023/02/17 09:48:11;;;;;;;0.10;0.00;;;;;;;29.26;54.36;99753.75;7392501;19;20026;-79
2023/02/17 09:51:04;;;;;;;0.63;0.22;;;;;;;30.73;51.25;99761.06;7385026;19;20096;-80
2023/02/17 09:54:02;;;;;;;0.17;0.17;;;;;;;30.47;51.32;99767.94;7392219;19;20510;-79
2023/02/17 09:56:33;;;;;;;0.35;0.25;;;;;;;30.77;50.13;99761.31;7387002;19;20018;-79
2023/02/17 09:59:10;;;;;;;0.85;0.85;;;;;;;30.93;50.37;99745.13;7389479;19;20014;-79
2023/02/17 10:01:37;;;;;;;0.73;0.13;;;;;;;30.56;50.11;99746.97;7390454;19;20029;-79
2023/02/17 10:04:03;;;;;;;2.28;0.13;;;;;;;31.05;49.07;99731.53;7390855;19;20106;-82
2023/02/17 10:06:34;;;;;;;0.10;0.10;;;;;;;30.11;49.58;99726.00;7389277;19;20082;-79
2023/02/17 10:09:08;;;;;;;;;;;;;;;30.99;47.60;99742.63;7391296;19;20014;-79
2023/02/17 10:11:39;;;;;;;0.10;0.10;;;;;;;30.77;47.55;99754.81;7388572;19;19930;-80
2023/02/17 10:14:18;;;;;;;0.15;0.10;;;;;;;30.62;47.43;99744.50;7387565;19;20030;-79
2023/02/17 10:16:53;;;;;;;2.00;0.32;;;;;;;31.41;45.35;99744.59;7389363;19;20032;-79
2023/02/17 10:19:27;;;;;;;0.40;0.10;;;;;;;31.28;45.55;99751.72;7388813;19;20035;-80
2023/02/17 10:22:07;;;;;;;0.00;0.00;;;;;;;31.76;43.33;99747.50;7386917;19;20666;-83
2023/02/17 10:24:33;;;;;;;3.63;0.47;;;;;;;31.16;43.55;99739.44;7385544;19;20026;-79
2023/02/17 10:27:17;;;;;;;0.47;0.13;;;;;;;30.17;43.88;99746.50;7388612;19;20102;-79
2023/02/17 10:29:53;;;;;;;3.63;0.10;;;;;;;31.33;42.32;99733.31;7389082;19;20017;-80
2023/02/17 10:32:24;;;;;;;6.05;0.65;;;;;;;31.18;41.61;99739.56;7389165;19;20683;-80
2023/02/17 10:35:17;;;;;;;0.68;0.30;;;;;;;31.66;40.53;99755.53;7388655;19;20015;-79
2023/02/17 10:37:55;;;;;;;5.25;0.40;;;;;;;31.27;40.14;99761.72;7385514;19;20018;-79
2023/02/17 10:40:24;;;;;;;2.53;0.60;;;;;;;31.71;39.91;99765.88;7386716;19;20046;-80
2023/02/17 10:42:54;;;;;;;1.08;0.10;;;;;;;30.22;41.39;99779.13;7383473;19;20014;-79
2023/02/17 10:45:31;;;;;;;0.28;0.28;;;;;;;30.57;40.16;99771.50;7387348;19;20700;-80
2023/02/17 10:48:06;;;;;;;0.73;0.17;;;;;;;30.44;39.61;99780.66;7384583;19;20010;-79
2023/02/17 10:50:35;;;;;;;1.27;0.28;;;;;;;31.50;39.44;99768.91;7385235;19;20436;-79
2023/02/17 10:53:10;;;;;;;0.43;0.13;;;;;;;31.83;39.11;99763.78;7388947;19;20033;-79
2023/02/17 10:55:43;;;;;;;0.20;0.10;;;;;;;32.08;38.32;99781.94;7388845;19;20476;-79
2023/02/17 10:58:24;;;;;;;3.78;0.52;;;;;;;32.41;38.22;99775.97;7390144;19;20018;-80
2023/02/17 11:00:52;;;;;;;;;;;;;;;32.74;36.74;99767.84;7385699;19;20022;-80
2023/02/17 11:03:26;;;;;;;0.40;0.10;;;;;;;32.77;36.64;99769.44;7385547;19;19928;-80
2023/02/17 11:06:18;;;;;;;0.73;0.20;;;;;;;32.18;37.48;99762.34;7386059;19;20018;-79
2023/02/17 11:08:57;;;;;;;1.35;0.30;;;;;;;32.26;37.43;99764.97;7383402;19;20014;-79
2023/02/17 11:11:25;;;;;;;2.47;0.30;;;;;;;30.45;39.12;99776.44;7386358;19;20014;-80
2023/02/17 11:14:03;;;;;;;0.80;0.30;;;;;;;32.11;37.95;99780.69;7385578;19;20514;-79
2023/02/17 11:16:40;;;;;;;1.83;0.28;;;;;;;32.05;37.29;99768.75;7388428;19;20025;-81
2023/02/17 11:19:22;;;;;;;0.20;0.20;;;;;;;32.53;36.74;99788.22;7388381;19;20548;-81
2023/02/17 11:21:54;;;;;;;3.95;0.30;;;;;;;24.83;45.33;99806.38;7387412;19;20035;-80
2023/02/17 11:24:21;;;;;;;1.90;0.47;;;;;;;23.96;48.72;99811.81;7385625;19;20602;-81
2023/02/17 11:27:07;;;;;;;0.52;0.10;;;;;;;30.88;40.29;99815.28;7384527;19;20019;-80
2023/02/17 11:29:33;;;;;;;1.15;0.75;;;;;;;27.30;42.38;99826.84;7383414;19;20101;-81
2023/02/17 11:32:07;;;;;;;0.15;0.08;;;;;;;26.47;46.68;99822.13;7383566;19;20053;-80
2023/02/17 11:34:37;;;;;;;0.10;0.00;;;;;;;31.75;39.22;99812.25;7384684;19;20030;-80
2023/02/17 11:37:12;;;;;;;1.27;0.20;;;;;;;32.18;37.30;99807.72;7385504;19;20036;-81
2023/02/17 11:39:52;;;;;;;5.28;0.90;;;;;;;32.74;37.37;99801.72;7384839;19;20018;-79
2023/02/17 11:42:22;;;;;;;0.85;0.60;;;;;;;32.52;37.99;99798.28;7383311;19;20018;-80
2023/02/17 11:44:49;;;;;;;0.05;0.00;;;;;;;32.47;38.61;99808.06;7387261;19;20110;-80
2023/02/17 11:47:41;;;;;;;1.48;0.20;;;;;;;33.33;36.47;99815.22;7389256;19;20618;-80
2023/02/17 11:50:29;;;;;;;0.20;0.20;;;;;;;32.71;36.37;99806.59;7386165;19;20034;-80